aviador You're here:

MMLP Decoded Metar

LA PAZ in MEXICO
Report Time2017-11-19 18:43:00
UTC Time2017-11-19 19:51:17
Flight Rules Old
Wind330° at 07 kt
W.Decomp.*RWY 36: 5.4 kt HW 4.5 kt LCW
W.Rank330° ranks 8
Current wind is below 330° avg. (8.1)
Visibility9999 m
Phenomena:N/A
Clouds:Broken 220 Hf
Expected CloudBase > 5,600 ft AGL from Temp-Dew spread
Ceiling22,000 ft
Temp28°C (ISA +13)
Dew Point14°C (42% RH)
Heat Index27.8°C
AAT26.7°C
QNH1014 hPa
Density Alt1,762 ft
Elevation69 ft
Report Wrong Elevation
Raw Report
MMLP 191843Z 33007KT 10SM BKN220 28/14 A2993 RMK 8/008=

Extra information for MMLP:More info

Metar Taf Metar & Taf Last 4 Metars F.Rules Stats Wind Profile Meteogram Temp Stats Airport Information Weather charts Add Link Nearby VenuesMetar ALERT Operation Metar Decoded Social comments